createdAt,value
2022-09-18T00:01:36.706Z,5.72
2022-09-18T00:04:06.590Z,8.43
2022-09-18T00:06:39.231Z,9.77
2022-09-18T00:09:08.917Z,11.73
2022-09-18T00:11:39.831Z,6.72
2022-09-18T00:14:09.646Z,5.75
2022-09-18T00:16:37.746Z,5.90
2022-09-18T00:19:06.112Z,9.40
2022-09-18T00:21:37.296Z,6.03
2022-09-18T00:24:06.506Z,6.85
2022-09-18T00:26:35.434Z,6.57
2022-09-18T00:29:03.408Z,7.07
2022-09-18T00:31:33.657Z,5.20
2022-09-18T00:36:30.950Z,12.32
2022-09-18T00:39:00.801Z,6.63
2022-09-18T00:41:31.420Z,5.55
2022-09-18T00:44:31.054Z,6.43
2022-09-18T00:47:05.861Z,4.10
2022-09-18T00:49:35.658Z,6.43
2022-09-18T00:52:03.859Z,6.80
2022-09-18T00:54:36.746Z,6.80
2022-09-18T00:57:07.492Z,9.30
2022-09-18T00:59:37.435Z,4.78
2022-09-18T01:02:05.910Z,4.25
2022-09-18T01:04:34.016Z,5.25
2022-09-18T01:07:08.221Z,6.75
2022-09-18T01:09:44.721Z,5.68
2022-09-18T01:12:23.750Z,6.22
2022-09-18T01:15:02.606Z,4.88
2022-09-18T01:17:39.193Z,7.25
2022-09-18T01:20:34.493Z,6.35
2022-09-18T01:23:15.295Z,6.20
2022-09-18T01:25:57.787Z,8.20
2022-09-18T01:28:35.917Z,6.82
2022-09-18T01:31:07.829Z,5.20
2022-09-18T01:33:41.167Z,6.15
2022-09-18T01:36:14.607Z,6.47
2022-09-18T01:38:46.479Z,5.05
2022-09-18T01:41:21.090Z,6.13
2022-09-18T01:43:54.457Z,6.57
2022-09-18T01:46:24.809Z,6.43
2022-09-18T01:48:57.978Z,6.07
2022-09-18T01:51:31.295Z,6.65
2022-09-18T01:54:03.555Z,7.15
2022-09-18T01:56:36.998Z,5.68
2022-09-18T01:59:12.740Z,6.20
2022-09-18T02:01:54.806Z,6.68
2022-09-18T02:04:27.753Z,4.65
2022-09-18T02:07:01.951Z,8.88
2022-09-18T02:09:31.260Z,6.20
2022-09-18T02:12:05.032Z,4.70
2022-09-18T02:14:42.714Z,8.57
2022-09-18T02:17:42.822Z,5.57
2022-09-18T02:20:15.636Z,5.03
2022-09-18T02:22:46.886Z,8.93
2022-09-18T02:25:18.706Z,5.78
2022-09-18T02:27:49.611Z,4.75
2022-09-18T02:30:19.088Z,9.57
2022-09-18T02:32:47.385Z,4.93
2022-09-18T02:35:15.738Z,5.30
2022-09-18T02:37:58.337Z,6.15
2022-09-18T02:40:38.197Z,7.18
2022-09-18T02:43:25.262Z,4.00
2022-09-18T02:46:04.839Z,8.30
2022-09-18T02:48:47.978Z,7.10
2022-09-18T02:51:28.513Z,7.05
2022-09-18T02:54:00.641Z,5.85
2022-09-18T02:56:38.014Z,6.63
2022-09-18T02:59:11.129Z,10.65
2022-09-18T03:01:44.450Z,5.80
2022-09-18T03:04:15.115Z,6.10
2022-09-18T03:06:56.465Z,6.95
2022-09-18T03:09:25.744Z,8.80
2022-09-18T03:11:54.003Z,6.75
2022-09-18T03:14:22.259Z,8.38
2022-09-18T03:16:51.421Z,8.73
2022-09-18T03:19:19.286Z,5.30
2022-09-18T03:21:47.207Z,6.55
2022-09-18T03:24:15.030Z,12.32
2022-09-18T03:26:45.801Z,5.80
2022-09-18T03:29:15.169Z,4.93
2022-09-18T03:31:44.156Z,8.33
2022-09-18T03:34:14.001Z,10.35
2022-09-18T03:36:41.895Z,8.57
2022-09-18T03:39:09.727Z,9.75
2022-09-18T03:41:39.199Z,11.57
2022-09-18T03:44:09.047Z,9.30
2022-09-18T03:46:41.486Z,6.43
2022-09-18T03:49:10.220Z,6.28
2022-09-18T03:51:41.882Z,4.97
2022-09-18T03:54:09.796Z,6.90
2022-09-18T03:56:38.829Z,7.18
2022-09-18T03:59:13.133Z,8.25
2022-09-18T04:01:55.938Z,8.35
2022-09-18T04:04:27.327Z,8.60
2022-09-18T04:07:16.915Z,5.75
2022-09-18T04:10:23.170Z,8.32
2022-09-18T04:12:51.399Z,7.55
2022-09-18T04:15:24.968Z,9.23
2022-09-18T04:17:52.836Z,6.70
2022-09-18T04:20:21.296Z,6.65
2022-09-18T04:22:50.480Z,10.05
2022-09-18T04:25:18.831Z,8.02
2022-09-18T04:27:47.941Z,8.82
2022-09-18T04:30:17.433Z,6.68
2022-09-18T04:32:46.110Z,4.55
2022-09-18T04:35:14.131Z,6.90
2022-09-18T04:37:44.512Z,5.53
2022-09-18T04:40:14.917Z,7.05
2022-09-18T04:42:43.122Z,8.88
2022-09-18T04:45:12.040Z,5.00
2022-09-18T04:47:42.001Z,7.32
2022-09-18T04:50:10.955Z,11.05
2022-09-18T04:52:58.867Z,9.98
2022-09-18T04:55:29.747Z,7.10
2022-09-18T04:57:57.697Z,6.40
2022-09-18T05:00:25.748Z,5.75
2022-09-18T05:02:54.160Z,6.60
2022-09-18T05:05:25.731Z,7.93
2022-09-18T05:07:53.918Z,8.20
2022-09-18T05:10:23.448Z,4.70
2022-09-18T05:12:54.076Z,9.10
2022-09-18T05:15:22.632Z,6.60
2022-09-18T05:18:00.019Z,5.57
2022-09-18T05:20:28.474Z,7.65
2022-09-18T05:23:01.628Z,6.95
2022-09-18T05:25:31.042Z,8.95
2022-09-18T05:28:02.994Z,7.20
2022-09-18T05:30:38.525Z,7.43
2022-09-18T05:33:08.828Z,7.10
2022-09-18T05:35:40.141Z,6.18
2022-09-18T05:38:08.932Z,6.72
2022-09-18T05:40:39.601Z,9.25
2022-09-18T05:43:10.069Z,6.57
2022-09-18T05:45:40.140Z,6.80
2022-09-18T05:48:16.777Z,7.35
2022-09-18T05:50:45.750Z,9.32
2022-09-18T05:53:19.165Z,8.27
2022-09-18T05:56:13.190Z,6.25
2022-09-18T05:58:43.674Z,4.53
2022-09-18T06:01:14.368Z,4.47
2022-09-18T06:03:59.440Z,4.25
2022-09-18T06:06:37.138Z,7.72
2022-09-18T06:09:05.115Z,7.57
2022-09-18T06:11:33.933Z,5.18
2022-09-18T06:14:03.397Z,7.05
2022-09-18T06:16:31.635Z,6.07
2022-09-18T06:19:04.437Z,8.13
2022-09-18T06:21:32.400Z,7.53
2022-09-18T06:24:00.567Z,4.43
2022-09-18T06:26:38.882Z,6.03
2022-09-18T06:29:09.089Z,5.40
2022-09-18T06:31:46.967Z,4.77
2022-09-18T06:34:21.808Z,5.35
2022-09-18T06:36:50.100Z,4.45
2022-09-18T06:39:27.406Z,7.13
2022-09-18T06:42:00.424Z,6.57
2022-09-18T06:44:48.169Z,5.88
2022-09-18T06:47:17.635Z,4.50
2022-09-18T06:49:47.878Z,6.60
2022-09-18T06:52:18.169Z,9.10
2022-09-18T06:54:47.539Z,4.97
2022-09-18T06:57:31.140Z,4.95
2022-09-18T07:00:00.546Z,4.15
2022-09-18T07:02:33.318Z,4.40
2022-09-18T07:05:12.994Z,5.13
2022-09-18T07:07:46.890Z,5.93
2022-09-18T07:10:14.937Z,5.85
2022-09-18T07:12:48.533Z,2.85
2022-09-18T07:15:21.616Z,4.78
2022-09-18T07:17:49.672Z,2.63
2022-09-18T07:20:19.832Z,2.47
2022-09-18T07:22:54.834Z,4.60
2022-09-18T07:25:28.122Z,5.25
2022-09-18T07:27:56.311Z,4.90
2022-09-18T07:30:25.604Z,4.15
2022-09-18T07:32:54.696Z,5.20
2022-09-18T07:35:28.425Z,7.32
2022-09-18T07:37:59.978Z,9.73
2022-09-18T07:40:43.242Z,7.68
2022-09-18T07:43:14.988Z,5.32
2022-09-18T07:45:53.771Z,6.88
2022-09-18T07:48:23.365Z,3.03
2022-09-18T07:50:57.723Z,6.40
2022-09-18T07:53:25.851Z,7.65
2022-09-18T07:55:57.649Z,2.78
2022-09-18T07:58:27.175Z,7.72
2022-09-18T08:01:07.090Z,6.28
2022-09-18T08:03:41.930Z,5.90
2022-09-18T08:06:13.412Z,4.38
2022-09-18T08:09:00.289Z,10.90
2022-09-18T08:11:54.397Z,3.20
2022-09-18T08:14:29.050Z,3.78
2022-09-18T08:17:22.830Z,5.53
2022-09-18T08:20:16.670Z,4.78
2022-09-18T08:22:47.818Z,5.05
2022-09-18T08:25:16.739Z,5.75
2022-09-18T08:27:48.854Z,6.03
2022-09-18T08:30:24.072Z,5.75
2022-09-18T08:33:00.640Z,6.25
2022-09-18T08:35:28.878Z,3.35
2022-09-18T08:38:01.898Z,4.43
2022-09-18T08:41:05.402Z,7.53
2022-09-18T08:43:50.535Z,5.38
2022-09-18T08:46:23.594Z,6.03
2022-09-18T08:49:00.448Z,5.55
2022-09-18T08:51:34.481Z,2.88
2022-09-18T08:54:21.928Z,4.28
2022-09-18T08:57:17.154Z,3.85
2022-09-18T09:00:07.178Z,4.45
2022-09-18T09:02:41.365Z,8.13
2022-09-18T09:05:14.156Z,5.55
2022-09-18T09:08:08.763Z,5.28
2022-09-18T09:10:45.142Z,4.50
2022-09-18T09:13:35.234Z,1.67
2022-09-18T09:16:08.278Z,3.53
2022-09-18T09:18:45.481Z,3.65
2022-09-18T09:21:23.585Z,2.95
2022-09-18T09:24:17.420Z,3.63
2022-09-18T09:27:20.706Z,4.60
2022-09-18T09:30:07.012Z,4.30
2022-09-18T09:32:46.201Z,1.92
2022-09-18T09:35:45.274Z,3.85
2022-09-18T09:38:33.008Z,1.42
2022-09-18T09:41:10.549Z,1.77
2022-09-18T09:43:46.145Z,3.28
2022-09-18T09:46:23.653Z,3.13
2022-09-18T09:48:58.050Z,4.47
2022-09-18T09:51:35.439Z,5.72
2022-09-18T09:54:10.267Z,2.60
2022-09-18T09:56:44.654Z,2.35
2022-09-18T09:59:25.502Z,3.15
2022-09-18T10:02:28.445Z,2.53
2022-09-18T10:05:03.872Z,2.33
2022-09-18T10:07:38.344Z,3.63
2022-09-18T10:10:18.710Z,3.17
2022-09-18T10:15:23.520Z,3.78
2022-09-18T10:17:56.210Z,1.08
2022-09-18T10:20:29.053Z,3.60
2022-09-18T10:23:03.808Z,1.08
2022-09-18T10:25:40.190Z,3.67
2022-09-18T10:28:12.689Z,2.35
2022-09-18T10:30:54.717Z,2.70
2022-09-18T10:33:39.132Z,3.40
2022-09-18T10:36:20.111Z,2.63
2022-09-18T10:38:48.709Z,3.20
2022-09-18T10:41:39.455Z,2.30
2022-09-18T10:44:22.641Z,1.80
2022-09-18T10:47:02.518Z,2.80
2022-09-18T10:49:34.306Z,3.47
2022-09-18T10:52:28.515Z,3.42
2022-09-18T10:55:14.308Z,3.28
2022-09-18T10:58:02.566Z,2.95
2022-09-18T11:00:46.754Z,2.75
2022-09-18T11:03:22.098Z,3.47
2022-09-18T11:05:58.491Z,4.22
2022-09-18T11:08:30.903Z,2.15
2022-09-18T11:11:05.252Z,2.83
2022-09-18T11:13:58.210Z,2.58
2022-09-18T11:16:31.506Z,2.38
2022-09-18T11:19:07.672Z,3.33
2022-09-18T11:21:46.436Z,3.10
2022-09-18T11:24:27.418Z,3.80
2022-09-18T11:27:05.304Z,2.72
2022-09-18T11:29:39.599Z,1.75
2022-09-18T11:32:25.209Z,2.35
2022-09-18T11:35:00.419Z,3.50
2022-09-18T11:37:37.867Z,3.17
2022-09-18T11:40:15.894Z,1.90
2022-09-18T11:42:45.508Z,1.77
2022-09-18T11:45:29.521Z,2.28
2022-09-18T11:48:05.375Z,3.38
2022-09-18T11:50:36.902Z,2.47
2022-09-18T11:53:11.938Z,2.63
2022-09-18T11:55:45.567Z,3.95
2022-09-18T11:58:28.551Z,3.67
2022-09-18T12:01:06.783Z,1.55
2022-09-18T12:03:42.338Z,2.08
2022-09-18T12:06:18.734Z,4.10
2022-09-18T12:08:53.944Z,3.50
2022-09-18T12:11:34.624Z,2.65
2022-09-18T12:14:12.664Z,2.22
2022-09-18T12:16:51.883Z,1.48
2022-09-18T12:19:27.485Z,1.00
2022-09-18T12:22:02.710Z,1.15
2022-09-18T12:24:31.153Z,0.82
2022-09-18T12:27:11.434Z,0.87
2022-09-18T12:29:58.115Z,1.13
2022-09-18T12:32:41.055Z,2.60
2022-09-18T12:35:20.737Z,1.25
2022-09-18T12:38:02.489Z,1.38
2022-09-18T12:40:43.200Z,2.92
2022-09-18T12:43:39.122Z,1.83
2022-09-18T12:46:27.201Z,1.67
2022-09-18T12:49:21.966Z,2.35
2022-09-18T12:51:57.304Z,2.22
2022-09-18T12:54:58.612Z,3.00
2022-09-18T12:57:40.802Z,1.20
2022-09-18T13:00:11.683Z,1.27
2022-09-18T13:02:51.165Z,1.88
2022-09-18T13:05:27.191Z,1.05
2022-09-18T13:08:04.401Z,1.20
2022-09-18T13:10:38.620Z,1.55
2022-09-18T13:13:14.278Z,1.17
2022-09-18T13:15:47.286Z,0.90
2022-09-18T13:18:28.898Z,0.82
2022-09-18T13:21:00.205Z,3.25
2022-09-18T13:23:32.745Z,1.27
2022-09-18T13:26:03.076Z,1.75
2022-09-18T13:31:21.374Z,1.08
2022-09-18T13:36:26.912Z,1.85
2022-09-18T13:38:57.141Z,1.00
2022-09-18T13:41:25.452Z,1.13
2022-09-18T13:43:56.765Z,1.55
2022-09-18T13:46:34.418Z,0.95
2022-09-18T13:49:05.197Z,1.40
2022-09-18T13:51:36.262Z,3.30
2022-09-18T13:54:21.887Z,0.73
2022-09-18T13:57:30.431Z,1.70
2022-09-18T14:00:01.656Z,1.65
2022-09-18T14:02:40.864Z,1.27
2022-09-18T14:05:32.031Z,1.20
2022-09-18T14:08:10.224Z,2.30
2022-09-18T14:11:14.926Z,1.27
2022-09-18T14:13:48.918Z,1.42
2022-09-18T14:16:40.679Z,1.90
2022-09-18T14:19:28.033Z,2.30
2022-09-18T14:21:57.157Z,2.42
2022-09-18T14:24:40.810Z,2.35
2022-09-18T14:27:30.740Z,2.03
2022-09-18T14:30:01.469Z,2.60
2022-09-18T14:32:30.184Z,1.67
2022-09-18T14:35:23.509Z,5.05
2022-09-18T14:37:51.582Z,1.10
2022-09-18T14:40:23.102Z,2.35
2022-09-18T14:42:51.380Z,1.92
2022-09-18T14:45:28.319Z,3.28
2022-09-18T14:47:57.058Z,3.10
2022-09-18T14:50:35.074Z,2.00
2022-09-18T14:53:04.916Z,2.90
2022-09-18T14:55:40.308Z,3.38
2022-09-18T14:58:10.090Z,3.40
2022-09-18T15:00:39.462Z,5.30
2022-09-18T15:03:10.289Z,5.97
2022-09-18T15:05:38.335Z,4.38
2022-09-18T15:08:14.883Z,2.22
2022-09-18T15:10:48.027Z,2.67
2022-09-18T15:13:17.827Z,3.75
2022-09-18T15:15:46.923Z,3.85
2022-09-18T15:18:20.779Z,2.20
2022-09-18T15:20:50.907Z,2.10
2022-09-18T15:23:20.670Z,3.13
2022-09-18T15:25:54.560Z,3.13
2022-09-18T15:28:25.076Z,4.63
2022-09-18T15:30:57.362Z,3.03
2022-09-18T15:33:27.382Z,2.67
2022-09-18T15:35:56.860Z,3.53
2022-09-18T15:38:31.852Z,3.07
2022-09-18T15:41:23.114Z,3.35
2022-09-18T15:43:51.187Z,2.65
2022-09-18T15:46:27.456Z,3.28
2022-09-18T15:48:59.539Z,2.63
2022-09-18T15:51:30.110Z,5.07
2022-09-18T15:54:27.597Z,3.40
2022-09-18T15:56:59.713Z,4.55
2022-09-18T15:59:32.448Z,3.15
2022-09-18T16:02:04.854Z,5.18
2022-09-18T16:04:33.988Z,4.72
2022-09-18T16:07:05.717Z,3.33
2022-09-18T16:09:37.980Z,4.13
2022-09-18T16:12:39.836Z,6.13
2022-09-18T16:15:23.156Z,3.80
2022-09-18T16:18:01.944Z,5.00
2022-09-18T16:20:35.287Z,3.63
2022-09-18T16:23:16.356Z,3.80
2022-09-18T16:25:45.653Z,4.97
2022-09-18T16:28:24.495Z,6.05
2022-09-18T16:30:52.750Z,4.78
2022-09-18T16:33:22.772Z,4.25
2022-09-18T16:35:56.896Z,4.43
2022-09-18T16:38:25.163Z,2.38
2022-09-18T16:40:53.120Z,5.40
2022-09-18T16:43:22.950Z,4.80
2022-09-18T16:45:51.850Z,4.55
2022-09-18T16:48:20.920Z,2.03
2022-09-18T16:50:48.904Z,1.13
2022-09-18T16:53:17.823Z,3.13
2022-09-18T16:55:50.832Z,5.05
2022-09-18T16:58:20.606Z,4.75
2022-09-18T17:00:50.405Z,4.20
2022-09-18T17:03:19.345Z,2.20
2022-09-18T17:05:47.684Z,6.43
2022-09-18T17:08:16.020Z,4.05
2022-09-18T17:10:45.341Z,5.43
2022-09-18T17:13:13.797Z,5.70
2022-09-18T17:15:42.215Z,1.92
2022-09-18T17:18:11.928Z,3.92
2022-09-18T17:20:39.861Z,4.07
2022-09-18T17:23:08.401Z,3.95
2022-09-18T17:25:36.858Z,5.32
2022-09-18T17:28:04.966Z,2.78
2022-09-18T17:30:32.966Z,3.72
2022-09-18T17:33:00.990Z,4.05
2022-09-18T17:35:30.391Z,4.00
2022-09-18T17:37:58.452Z,4.20
2022-09-18T17:40:26.518Z,6.18
2022-09-18T17:42:54.646Z,7.38
2022-09-18T17:45:22.604Z,6.10
2022-09-18T17:47:52.068Z,6.28
2022-09-18T17:50:21.273Z,3.50
2022-09-18T17:52:50.669Z,5.03
2022-09-18T17:55:18.946Z,4.73
2022-09-18T17:57:46.877Z,7.20
2022-09-18T18:00:15.924Z,3.35
2022-09-18T18:02:43.871Z,5.85
2022-09-18T18:05:12.012Z,7.78
2022-09-18T18:07:39.864Z,3.60
2022-09-18T18:10:10.182Z,7.40
2022-09-18T18:15:06.617Z,5.72
2022-09-18T18:17:34.709Z,4.28
2022-09-18T18:20:03.635Z,5.88
2022-09-18T18:22:32.121Z,6.00
2022-09-18T18:25:00.084Z,2.95
2022-09-18T18:27:29.532Z,5.13
2022-09-18T18:29:57.634Z,4.60
2022-09-18T18:32:25.554Z,5.63
2022-09-18T18:34:55.465Z,5.75
2022-09-18T18:37:23.553Z,7.40
2022-09-18T18:39:51.568Z,4.97
2022-09-18T18:42:19.617Z,2.80
2022-09-18T18:44:48.988Z,4.57
2022-09-18T18:47:20.426Z,6.90
2022-09-18T18:49:48.567Z,5.32
2022-09-18T18:52:16.991Z,5.68
2022-09-18T18:54:45.903Z,4.05
2022-09-18T18:57:13.884Z,4.53
2022-09-18T18:59:43.591Z,3.33
2022-09-18T19:02:13.071Z,7.10
2022-09-18T19:04:41.650Z,5.32
2022-09-18T19:07:10.751Z,4.85
2022-09-18T19:09:38.650Z,4.95
2022-09-18T19:12:06.831Z,4.60
2022-09-18T19:14:37.947Z,6.80
2022-09-18T19:17:06.524Z,5.57
2022-09-18T19:19:36.081Z,5.47
2022-09-18T19:22:04.187Z,3.75
2022-09-18T19:24:32.569Z,4.28
2022-09-18T19:27:01.105Z,7.35
2022-09-18T19:29:29.318Z,2.45
2022-09-18T19:31:57.735Z,4.85
2022-09-18T19:34:26.070Z,6.03
2022-09-18T19:36:56.281Z,4.45
2022-09-18T19:39:24.831Z,6.18
2022-09-18T19:41:59.061Z,3.40
2022-09-18T19:44:31.740Z,1.60
2022-09-18T19:47:02.553Z,3.08
2022-09-18T19:49:34.722Z,3.00
2022-09-18T19:52:05.203Z,3.80
2022-09-18T19:54:33.388Z,2.22
2022-09-18T19:57:01.428Z,1.80
2022-09-18T19:59:29.539Z,2.80
2022-09-18T20:01:57.982Z,5.53
2022-09-18T20:04:26.100Z,3.67
2022-09-18T20:06:54.253Z,5.32
2022-09-18T20:09:28.568Z,3.67
2022-09-18T20:11:57.263Z,3.65
2022-09-18T20:14:25.566Z,3.90
2022-09-18T20:16:55.522Z,2.13
2022-09-18T20:19:24.870Z,1.63
2022-09-18T20:21:54.251Z,3.50
2022-09-18T20:24:23.631Z,3.58
2022-09-18T20:26:52.196Z,2.15
2022-09-18T20:29:20.311Z,1.98
2022-09-18T20:31:50.068Z,1.98
2022-09-18T20:34:22.384Z,1.75
2022-09-18T20:36:51.990Z,4.55
2022-09-18T20:39:21.587Z,4.70
2022-09-18T20:41:51.301Z,4.15
2022-09-18T20:44:19.963Z,5.35
2022-09-18T20:46:50.385Z,3.17
2022-09-18T20:49:18.379Z,4.53
2022-09-18T20:51:46.265Z,3.17
2022-09-18T20:54:15.878Z,5.30
2022-09-18T20:56:44.777Z,4.78
2022-09-18T20:59:16.710Z,3.95
2022-09-18T21:01:45.780Z,5.38
2022-09-18T21:04:17.579Z,4.72
2022-09-18T21:06:47.344Z,2.08
2022-09-18T21:09:16.175Z,3.05
2022-09-18T21:11:45.922Z,2.90
2022-09-18T21:14:17.839Z,3.80
2022-09-18T21:16:46.215Z,4.60
2022-09-18T21:19:17.153Z,3.42
2022-09-18T21:21:45.711Z,9.18
2022-09-18T21:24:14.804Z,4.40
2022-09-18T21:26:45.514Z,3.47
2022-09-18T21:29:17.682Z,4.03
2022-09-18T21:31:47.234Z,2.42
2022-09-18T21:34:17.132Z,5.53
2022-09-18T21:36:45.461Z,4.60
2022-09-18T21:39:14.942Z,3.17
2022-09-18T21:41:46.655Z,3.07
2022-09-18T21:44:17.965Z,5.57
2022-09-18T21:46:46.261Z,4.50
2022-09-18T21:49:16.322Z,3.05
2022-09-18T21:51:44.848Z,6.95
2022-09-18T21:54:16.324Z,3.65
2022-09-18T21:56:45.667Z,3.35
2022-09-18T21:59:13.912Z,2.20
2022-09-18T22:01:43.643Z,1.85
2022-09-18T22:04:12.552Z,5.57
2022-09-18T22:06:43.842Z,5.30
2022-09-18T22:09:14.027Z,2.15
2022-09-18T22:11:44.539Z,3.28
2022-09-18T22:14:14.606Z,4.55
2022-09-18T22:16:45.493Z,2.72
2022-09-18T22:19:14.004Z,4.03
2022-09-18T22:21:44.797Z,4.55
2022-09-18T22:24:15.944Z,3.50
2022-09-18T22:26:46.155Z,4.53
2022-09-18T22:29:16.751Z,5.47
2022-09-18T22:31:47.421Z,3.45
2022-09-18T22:34:17.393Z,5.63
2022-09-18T22:36:46.169Z,4.53
2022-09-18T22:39:15.010Z,4.90
2022-09-18T22:41:43.488Z,3.95
2022-09-18T22:44:12.367Z,5.15
2022-09-18T22:46:42.323Z,5.72
2022-09-18T22:49:13.804Z,4.93
2022-09-18T22:51:42.549Z,4.50
2022-09-18T22:54:10.760Z,5.93
2022-09-18T22:56:40.593Z,4.97
2022-09-18T22:59:09.000Z,4.63
2022-09-18T23:01:41.591Z,6.78
2022-09-18T23:04:11.424Z,4.70
2022-09-18T23:06:39.519Z,5.35
2022-09-18T23:09:09.619Z,3.25
2022-09-18T23:11:38.540Z,6.68
2022-09-18T23:14:08.184Z,5.85
2022-09-18T23:16:37.914Z,4.03
2022-09-18T23:19:07.642Z,3.85
2022-09-18T23:21:37.268Z,4.97
2022-09-18T23:24:09.153Z,8.35
2022-09-18T23:26:39.780Z,5.20
2022-09-18T23:31:39.527Z,6.43
2022-09-18T23:34:09.925Z,6.45
2022-09-18T23:36:41.186Z,4.75
2022-09-18T23:39:13.832Z,2.75
2022-09-18T23:41:42.654Z,3.90
2022-09-18T23:44:12.656Z,5.07
2022-09-18T23:46:40.834Z,4.43
2022-09-18T23:49:12.184Z,6.63
2022-09-18T23:51:43.585Z,2.47
2022-09-18T23:54:16.814Z,3.90
2022-09-18T23:56:45.601Z,2.78
2022-09-18T23:59:15.980Z,4.38
